Time;durP1;ratioP1;P1;durP2;ratioP2;P2;SDS_P1;SDS_P2;PMS_P1;PMS_P2;Temp;Humidity;BMP_temperature;BMP_pressure;BME280_temperature;BME280_humidity;BME280_pressure;Samples;Min_cycle;Max_cycle;Signal;HPM_P1;HPM_P2
2023/05/08 00:02:04;;;;;;;16.95;13.07;;;11.70;99.90;;;;;;5054352;28;20036;-71
2023/05/08 00:04:30;;;;;;;15.75;12.60;;;11.70;99.90;;;;;;5069871;28;20044;-70
2023/05/08 00:06:56;;;;;;;17.92;12.70;;;11.70;99.90;;;;;;5054059;28;20071;-71
2023/05/08 00:09:22;;;;;;;16.70;12.52;;;11.60;99.90;;;;;;5070836;28;20036;-70
2023/05/08 00:11:47;;;;;;;24.63;14.18;;;11.60;99.90;;;;;;5070593;28;20051;-70
2023/05/08 00:14:14;;;;;;;18.77;12.82;;;11.60;99.90;;;;;;5071491;28;20028;-71
2023/05/08 00:16:40;;;;;;;18.30;13.55;;;11.60;99.90;;;;;;5086812;28;20039;-70
2023/05/08 00:19:06;;;;;;;18.60;12.98;;;11.60;99.90;;;;;;5087289;28;20038;-71
2023/05/08 00:21:32;;;;;;;16.85;12.15;;;11.60;99.90;;;;;;5088441;28;20032;-70
2023/05/08 00:23:58;;;;;;;18.23;13.05;;;11.50;99.90;;;;;;5035062;28;20497;-70
2023/05/08 00:26:23;;;;;;;18.15;13.07;;;11.50;99.90;;;;;;5071636;28;20036;-70
2023/05/08 00:28:49;;;;;;;16.40;12.77;;;11.50;99.90;;;;;;5086360;28;20123;-71
2023/05/08 00:31:15;;;;;;;15.82;13.07;;;11.50;99.90;;;;;;5052541;28;20119;-70
2023/05/08 00:33:41;;;;;;;19.25;12.73;;;11.50;99.90;;;;;;5088154;28;20028;-70
2023/05/08 00:36:06;;;;;;;16.40;13.13;;;11.50;99.90;;;;;;5087039;28;20032;-70
2023/05/08 00:38:33;;;;;;;15.73;12.60;;;11.40;99.90;;;;;;5088040;28;20048;-70
2023/05/08 00:41:00;;;;;;;15.25;12.10;;;11.40;99.90;;;;;;5088004;28;20056;-70
2023/05/08 00:43:27;;;;;;;18.08;13.02;;;11.40;99.90;;;;;;5070946;28;20067;-70
2023/05/08 00:45:57;;;;;;;16.30;13.00;;;11.40;99.90;;;;;;5085821;28;20047;-70
2023/05/08 00:48:27;;;;;;;16.73;12.40;;;11.30;99.90;;;;;;5087307;28;22194;-70
2023/05/08 00:50:54;;;;;;;15.80;12.93;;;11.30;99.90;;;;;;5083499;28;20036;-70
2023/05/08 00:53:21;;;;;;;17.55;13.60;;;11.30;99.90;;;;;;5088087;28;20067;-70
2023/05/08 00:55:49;;;;;;;16.70;13.45;;;11.30;99.90;;;;;;5069980;28;20459;-70
2023/05/08 00:58:15;;;;;;;16.95;12.82;;;11.10;99.90;;;;;;5087004;28;20572;-71
2023/05/08 01:00:43;;;;;;;16.73;12.70;;;11.30;99.90;;;;;;5068615;28;20111;-70
2023/05/08 01:03:09;;;;;;;17.70;13.10;;;11.20;99.90;;;;;;5087704;28;20044;-70
2023/05/08 01:05:35;;;;;;;16.85;13.25;;;11.30;99.90;;;;;;5085460;28;20071;-71
2023/05/08 01:08:01;;;;;;;16.05;12.43;;;11.20;99.90;;;;;;5070250;28;20054;-70
2023/05/08 01:10:39;;;;;;;17.88;13.20;;;11.20;99.90;;;;;;5087078;28;20063;-70
2023/05/08 01:13:15;;;;;;;16.05;12.88;;;11.20;99.90;;;;;;5086153;28;20252;-70
2023/05/08 01:15:49;;;;;;;15.20;11.52;;;11.20;99.90;;;;;;5072664;28;20035;-71
2023/05/08 01:18:33;;;;;;;13.52;11.05;;;11.20;99.90;;;;;;5085027;28;20044;-70
2023/05/08 01:21:21;;;;;;;16.05;12.45;;;11.20;99.90;;;;;;5085152;28;20111;-70
2023/05/08 01:24:03;;;;;;;16.95;12.77;;;11.10;99.90;;;;;;5086610;28;20397;-70
2023/05/08 01:26:29;;;;;;;;;;;11.10;99.90;;;;;;5085878;28;20081;-70
2023/05/08 01:29:16;;;;;;;21.08;13.05;;;11.10;99.90;;;;;;5069574;28;19998;-70
2023/05/08 01:32:29;;;;;;;16.60;12.75;;;11.10;99.90;;;;;;5066215;28;20118;-70
2023/05/08 01:35:13;;;;;;;16.30;12.07;;;11.00;99.90;;;;;;5063256;28;20047;-70
2023/05/08 01:38:06;;;;;;;16.75;12.20;;;11.00;99.90;;;;;;5046759;28;20040;-70
2023/05/08 01:40:55;;;;;;;18.20;13.52;;;11.00;99.90;;;;;;5060010;28;20112;-70
2023/05/08 01:43:27;;;;;;;15.93;12.23;;;10.90;99.90;;;;;;5085316;28;20527;-70
2023/05/08 01:45:55;;;;;;;16.58;12.23;;;10.90;99.90;;;;;;5068823;28;20040;-70
2023/05/08 01:48:29;;;;;;;18.23;13.15;;;10.90;99.90;;;;;;5085793;28;20048;-70
2023/05/08 01:51:00;;;;;;;16.65;12.93;;;10.90;99.90;;;;;;5064610;28;20539;-69
2023/05/08 01:53:39;;;;;;;15.10;12.52;;;10.90;99.90;;;;;;5069484;28;20096;-70
2023/05/08 01:56:21;;;;;;;16.58;13.10;;;10.90;99.90;;;;;;5080978;28;20039;-71
2023/05/08 01:58:50;;;;;;;16.27;12.97;;;10.80;99.90;;;;;;5083770;28;20043;-70
2023/05/08 02:01:19;;;;;;;17.45;12.75;;;10.80;99.90;;;;;;5084222;28;20127;-71
2023/05/08 02:03:46;;;;;;;17.80;13.27;;;10.70;99.90;;;;;;5070766;28;20495;-70
2023/05/08 02:06:15;;;;;;;16.00;12.55;;;10.70;99.90;;;;;;5084987;28;20115;-71
2023/05/08 02:08:43;;;;;;;18.77;13.57;;;10.70;99.90;;;;;;5053232;28;20567;-70
2023/05/08 02:11:11;;;;;;;17.80;13.52;;;10.60;99.90;;;;;;5067299;28;20528;-70
2023/05/08 02:13:39;;;;;;;16.35;12.25;;;10.50;99.90;;;;;;5085792;28;20085;-70
2023/05/08 02:16:06;;;;;;;15.85;12.38;;;10.50;99.90;;;;;;5085893;28;20040;-70
2023/05/08 02:18:34;;;;;;;19.75;13.15;;;10.50;99.90;;;;;;5085222;28;20781;-71
2023/05/08 02:21:03;;;;;;;19.58;13.52;;;10.40;99.90;;;;;;5082503;28;20044;-70
2023/05/08 02:23:31;;;;;;;19.30;13.18;;;10.30;99.90;;;;;;5069399;28;20048;-70
2023/05/08 02:25:59;;;;;;;15.98;12.40;;;10.30;99.90;;;;;;5089128;28;20073;-70
2023/05/08 02:28:28;;;;;;;16.42;12.68;;;10.20;99.90;;;;;;5067874;28;20044;-70
2023/05/08 02:30:56;;;;;;;18.30;13.18;;;10.20;99.90;;;;;;5084906;28;20043;-70
2023/05/08 02:33:23;;;;;;;15.52;12.43;;;10.10;99.90;;;;;;5071519;28;20043;-70
2023/05/08 02:35:50;;;;;;;17.77;12.43;;;10.10;99.90;;;;;;5084358;28;20036;-71
2023/05/08 02:38:19;;;;;;;17.70;12.68;;;10.00;99.90;;;;;;5085967;28;20050;-71
2023/05/08 02:40:48;;;;;;;17.75;12.75;;;10.00;99.90;;;;;;5087399;28;20111;-69
2023/05/08 02:43:14;;;;;;;16.80;12.82;;;10.00;99.90;;;;;;5067776;28;20051;-69
2023/05/08 02:45:54;;;;;;;16.33;12.10;;;9.90;99.90;;;;;;5070231;28;20630;-71
2023/05/08 02:48:30;;;;;;;15.63;12.00;;;9.90;99.90;;;;;;5067015;28;20052;-70
2023/05/08 02:51:21;;;;;;;16.13;12.98;;;9.80;99.90;;;;;;5068005;28;20405;-70
2023/05/08 02:54:09;;;;;;;17.05;12.75;;;9.80;99.90;;;;;;5091156;28;20040;-70
2023/05/08 02:57:04;;;;;;;18.15;12.45;;;9.70;99.90;;;;;;5083352;28;20110;-70
2023/05/08 02:59:46;;;;;;;18.55;12.65;;;9.70;99.90;;;;;;5082349;28;20127;-70
2023/05/08 03:02:16;;;;;;;18.40;13.43;;;9.60;99.90;;;;;;5084735;28;20042;-69
2023/05/08 03:05:02;;;;;;;18.00;12.98;;;9.60;99.90;;;;;;5067865;28;20436;-70
2023/05/08 03:07:29;;;;;;;17.67;12.35;;;9.50;99.90;;;;;;5082635;28;20188;-70
2023/05/08 03:10:00;;;;;;;17.33;13.15;;;9.50;99.90;;;;;;5051701;28;20032;-71
2023/05/08 03:12:27;;;;;;;20.10;13.25;;;9.40;99.90;;;;;;5085323;28;20056;-70
2023/05/08 03:15:19;;;;;;;18.48;12.90;;;9.40;99.90;;;;;;5085451;28;20575;-70
2023/05/08 03:17:47;;;;;;;15.32;12.13;;;9.40;99.90;;;;;;5082790;28;20035;-70
2023/05/08 03:20:16;;;;;;;18.80;13.02;;;9.30;99.90;;;;;;5067730;28;20044;-70
2023/05/08 03:22:43;;;;;;;17.90;12.40;;;9.30;99.90;;;;;;5084895;28;20044;-70
2023/05/08 03:25:13;;;;;;;17.25;12.63;;;9.30;99.90;;;;;;5068412;28;20117;-70
2023/05/08 03:27:40;;;;;;;16.98;12.95;;;9.30;99.90;;;;;;5067105;28;20386;-70
2023/05/08 03:30:08;;;;;;;17.13;12.80;;;9.20;99.90;;;;;;5068084;28;20502;-70
2023/05/08 03:32:35;;;;;;;17.23;12.65;;;9.20;99.90;;;;;;5051380;28;20070;-70
2023/05/08 03:35:02;;;;;;;16.98;12.27;;;9.20;99.90;;;;;;5087275;28;20118;-70
2023/05/08 03:37:28;;;;;;;15.65;12.45;;;9.20;99.90;;;;;;5083663;28;20112;-70
2023/05/08 03:39:57;;;;;;;16.83;12.57;;;9.20;99.90;;;;;;5084090;28;20492;-70
2023/05/08 03:42:24;;;;;;;18.42;13.00;;;9.10;99.90;;;;;;5083103;28;20055;-70
2023/05/08 03:44:51;;;;;;;16.83;12.65;;;9.10;99.90;;;;;;5084233;28;20136;-71
2023/05/08 03:47:20;;;;;;;16.80;13.05;;;9.10;99.90;;;;;;5066609;28;20063;-70
2023/05/08 03:49:48;;;;;;;20.33;13.82;;;9.20;99.90;;;;;;5066019;28;20036;-70
2023/05/08 03:52:15;;;;;;;20.38;14.43;;;9.20;99.90;;;;;;5083965;28;20606;-70
2023/05/08 03:54:41;;;;;;;19.80;13.45;;;9.20;99.90;;;;;;5085085;28;20048;-70
2023/05/08 03:57:07;;;;;;;16.58;12.98;;;9.20;99.90;;;;;;5069176;28;20062;-70
2023/05/08 03:59:57;;;;;;;16.42;11.93;;;9.20;99.90;;;;;;5071646;28;20050;-70
2023/05/08 04:02:58;;;;;;;18.00;12.63;;;9.20;99.90;;;;;;5069963;28;20044;-70
2023/05/08 04:05:36;;;;;;;17.48;12.25;;;9.20;99.90;;;;;;5048026;28;20370;-70
2023/05/08 04:08:21;;;;;;;15.68;11.95;;;9.20;99.90;;;;;;5080331;28;20993;-70
2023/05/08 04:11:29;;;;;;;19.38;13.13;;;9.30;99.90;;;;;;5089660;28;20078;-70
2023/05/08 04:14:03;;;;;;;17.52;12.52;;;9.30;99.90;;;;;;5086672;28;20046;-71
2023/05/08 04:16:36;;;;;;;18.30;13.27;;;9.30;99.90;;;;;;5083564;28;20551;-70
2023/05/08 04:19:07;;;;;;;19.38;12.50;;;9.40;99.90;;;;;;5071373;28;20044;-70
2023/05/08 04:21:35;;;;;;;18.17;12.80;;;9.40;99.90;;;;;;5086114;28;20055;-70
2023/05/08 04:24:02;;;;;;;16.77;12.60;;;9.40;99.90;;;;;;5070758;28;20087;-70
2023/05/08 04:26:28;;;;;;;16.92;12.27;;;9.40;99.90;;;;;;5070453;28;20059;-70
2023/05/08 04:28:55;;;;;;;18.40;13.60;;;9.50;99.90;;;;;;5070547;28;20036;-70
2023/05/08 04:31:23;;;;;;;16.40;12.30;;;9.50;99.90;;;;;;5071481;28;20033;-70
2023/05/08 04:33:49;;;;;;;15.85;11.93;;;9.60;99.90;;;;;;5085518;28;20029;-70
2023/05/08 04:36:15;;;;;;;17.80;12.95;;;9.60;99.90;;;;;;5087519;28;20068;-70
2023/05/08 04:38:41;;;;;;;16.80;12.23;;;9.70;99.90;;;;;;5088771;28;20068;-70
2023/05/08 04:41:07;;;;;;;16.17;12.45;;;9.70;99.90;;;;;;5088622;28;20359;-70
2023/05/08 04:43:34;;;;;;;16.27;11.38;;;9.70;99.90;;;;;;5068395;28;20055;-70
2023/05/08 04:46:00;;;;;;;16.10;12.13;;;9.70;99.90;;;;;;5085038;28;20401;-70
2023/05/08 04:48:26;;;;;;;14.73;11.40;;;9.80;99.90;;;;;;5084595;28;20052;-70
2023/05/08 04:50:52;;;;;;;15.80;11.15;;;9.80;99.90;;;;;;5091624;28;20127;-70
2023/05/08 04:53:17;;;;;;;15.88;12.23;;;9.80;99.90;;;;;;5070869;28;20043;-70
2023/05/08 04:55:43;;;;;;;15.70;11.85;;;9.90;99.90;;;;;;5086170;28;20454;-70
2023/05/08 04:58:12;;;;;;;15.70;11.25;;;9.90;99.90;;;;;;5069179;28;20053;-70
2023/05/08 05:00:37;;;;;;;15.48;11.27;;;9.90;99.90;;;;;;5069930;28;20040;-70
2023/05/08 05:03:04;;;;;;;14.40;11.05;;;9.90;99.90;;;;;;5086215;28;20087;-70
2023/05/08 05:05:30;;;;;;;15.45;11.23;;;9.90;99.90;;;;;;5071857;28;20046;-70
2023/05/08 05:07:55;;;;;;;15.70;10.98;;;9.90;99.90;;;;;;5069128;28;20036;-70
2023/05/08 05:10:21;;;;;;;14.65;10.80;;;9.90;99.90;;;;;;5085802;28;20039;-71
2023/05/08 05:12:47;;;;;;;14.45;11.00;;;9.90;99.90;;;;;;5085961;28;20064;-70
2023/05/08 05:15:12;;;;;;;16.90;12.02;;;9.90;99.90;;;;;;5084893;28;20028;-70
2023/05/08 05:17:38;;;;;;;14.60;11.32;;;9.90;99.90;;;;;;5086224;28;20512;-70
2023/05/08 05:20:05;;;;;;;15.32;11.70;;;9.80;99.90;;;;;;5087016;28;20417;-70
2023/05/08 05:22:32;;;;;;;15.38;11.45;;;9.80;99.90;;;;;;5069617;28;20048;-70
2023/05/08 05:24:57;;;;;;;15.77;11.88;;;9.90;99.90;;;;;;5065785;28;20063;-70
2023/05/08 05:27:23;;;;;;;16.20;11.65;;;9.80;99.90;;;;;;5069683;28;20044;-70
2023/05/08 05:29:49;;;;;;;13.07;10.50;;;9.80;99.90;;;;;;5086663;28;20039;-70
2023/05/08 05:32:15;;;;;;;17.10;10.80;;;9.80;99.90;;;;;;5085355;28;20455;-70
2023/05/08 05:34:41;;;;;;;13.90;11.02;;;9.80;99.90;;;;;;5086262;28;20148;-70
2023/05/08 05:37:06;;;;;;;14.35;10.82;;;9.80;99.90;;;;;;5052069;28;20036;-70
2023/05/08 05:39:32;;;;;;;14.18;10.98;;;9.80;99.90;;;;;;5052795;28;20126;-70
2023/05/08 05:41:58;;;;;;;14.55;11.30;;;9.80;99.90;;;;;;5086765;28;20131;-70
2023/05/08 05:44:23;;;;;;;14.60;10.90;;;9.90;99.90;;;;;;5069437;28;20572;-70
2023/05/08 05:46:49;;;;;;;15.82;11.35;;;9.90;99.90;;;;;;5067069;28;20048;-70
2023/05/08 05:49:15;;;;;;;16.55;11.70;;;10.00;99.90;;;;;;5052957;28;20451;-70
2023/05/08 05:51:41;;;;;;;15.68;11.95;;;10.10;99.90;;;;;;5052675;28;20048;-70
2023/05/08 05:54:06;;;;;;;14.23;11.13;;;10.20;99.90;;;;;;5068283;28;20097;-70
2023/05/08 05:56:32;;;;;;;14.82;10.98;;;10.20;99.90;;;;;;5067920;28;20450;-70
2023/05/08 05:58:58;;;;;;;14.93;10.38;;;10.30;99.90;;;;;;5067778;28;20504;-70
2023/05/08 06:01:24;;;;;;;13.98;10.63;;;10.40;99.90;;;;;;5083977;28;20035;-70
2023/05/08 06:03:49;;;;;;;12.75;10.40;;;10.40;99.90;;;;;;5052928;28;20032;-70
2023/05/08 06:06:16;;;;;;;13.32;10.40;;;10.50;99.90;;;;;;5067238;28;20033;-70
2023/05/08 06:08:42;;;;;;;12.40;10.45;;;10.60;99.90;;;;;;5054536;28;20035;-70
2023/05/08 06:11:07;;;;;;;13.98;10.48;;;10.60;99.90;;;;;;5054875;28;20508;-70
2023/05/08 06:13:39;;;;;;;11.95;10.57;;;10.70;99.90;;;;;;5089156;28;20484;-69
2023/05/08 06:16:06;;;;;;;12.90;10.02;;;10.70;99.90;;;;;;5086433;28;20393;-70
2023/05/08 06:18:32;;;;;;;15.63;10.75;;;10.80;99.90;;;;;;5084540;28;20048;-70
2023/05/08 06:20:58;;;;;;;13.82;10.68;;;10.80;99.90;;;;;;5053489;28;20047;-70
2023/05/08 06:23:25;;;;;;;11.63;10.20;;;10.80;99.90;;;;;;5072022;28;20122;-70
2023/05/08 06:25:52;;;;;;;14.10;11.13;;;10.90;99.90;;;;;;5087874;28;20118;-70
2023/05/08 06:28:17;;;;;;;15.07;10.48;;;11.00;99.90;;;;;;5036890;28;20043;-70
2023/05/08 06:30:43;;;;;;;14.25;10.07;;;11.20;99.90;;;;;;5071365;28;20052;-70
2023/05/08 06:33:10;;;;;;;12.45;10.63;;;11.40;99.90;;;;;;5087215;28;20162;-70
2023/05/08 06:35:36;;;;;;;11.98;9.82;;;11.60;99.90;;;;;;5072800;28;20456;-70
2023/05/08 06:38:02;;;;;;;12.75;9.57;;;11.80;99.90;;;;;;5086989;28;20557;-70
2023/05/08 06:40:27;;;;;;;13.35;10.52;;;12.00;99.90;;;;;;5089657;28;20115;-70
2023/05/08 06:42:53;;;;;;;14.95;10.50;;;12.10;99.90;;;;;;5052728;28;20051;-70
2023/05/08 06:45:19;;;;;;;15.07;10.10;;;12.20;99.90;;;;;;5052395;28;20177;-70
2023/05/08 06:47:45;;;;;;;12.38;10.25;;;12.20;99.90;;;;;;5084287;28;21678;-71
2023/05/08 06:50:10;;;;;;;13.45;9.95;;;12.40;99.90;;;;;;5085270;28;20111;-71
2023/05/08 06:52:36;;;;;;;12.18;9.98;;;12.40;99.90;;;;;;5052203;28;20036;-71
2023/05/08 06:55:02;;;;;;;14.43;11.07;;;12.50;99.90;;;;;;5083244;28;20513;-70
2023/05/08 06:57:29;;;;;;;12.50;10.52;;;12.40;99.90;;;;;;5077289;28;20044;-71
2023/05/08 06:59:55;;;;;;;16.50;10.73;;;12.40;99.90;;;;;;5021611;28;20112;-71
2023/05/08 07:02:21;;;;;;;13.50;10.75;;;12.50;99.90;;;;;;5055189;28;20526;-71
2023/05/08 07:04:47;;;;;;;15.10;11.73;;;12.50;99.90;;;;;;5038360;28;20039;-71
2023/05/08 07:07:14;;;;;;;14.70;11.55;;;12.50;99.90;;;;;;5037651;28;20464;-71
2023/05/08 07:09:40;;;;;;;15.57;11.18;;;12.60;99.90;;;;;;5054982;28;20508;-71
2023/05/08 07:12:06;;;;;;;20.85;11.13;;;12.80;99.90;;;;;;5070840;28;20047;-71
2023/05/08 07:14:35;;;;;;;14.68;11.57;;;13.40;99.90;;;;;;5070088;28;20039;-72
2023/05/08 07:17:07;;;;;;;13.80;11.10;;;14.20;99.90;;;;;;5068592;28;20036;-71
2023/05/08 07:19:35;;;;;;;15.23;11.88;;;15.20;99.90;;;;;;5054484;28;20098;-70
2023/05/08 07:22:01;;;;;;;11.93;10.20;;;16.00;99.90;;;;;;5052591;28;20036;-70
2023/05/08 07:24:26;;;;;;;11.85;10.30;;;16.50;99.90;;;;;;5054576;28;20270;-72
2023/05/08 07:26:52;;;;;;;12.70;9.63;;;16.80;99.90;;;;;;5053816;28;20112;-71
2023/05/08 07:29:19;;;;;;;11.60;9.93;;;17.20;99.90;;;;;;5048112;28;20046;-72
2023/05/08 07:31:47;;;;;;;11.35;9.65;;;17.40;99.90;;;;;;5075266;28;20054;-72
2023/05/08 07:34:13;;;;;;;13.55;9.85;;;17.90;99.90;;;;;;5042646;28;20695;-71
2023/05/08 07:36:39;;;;;;;12.82;10.23;;;18.10;99.90;;;;;;5058373;28;20044;-72
2023/05/08 07:39:05;;;;;;;12.35;10.55;;;18.30;99.90;;;;;;5058004;28;20449;-72
2023/05/08 07:41:31;;;;;;;23.23;11.15;;;18.60;99.90;;;;;;5025690;28;20028;-72
2023/05/08 07:43:57;;;;;;;12.05;10.85;;;18.80;99.90;;;;;;5075762;28;20378;-72
2023/05/08 07:46:22;;;;;;;12.10;10.40;;;19.30;99.90;;;;;;5055963;28;20954;-72
2023/05/08 07:48:48;;;;;;;11.05;9.45;;;19.60;99.90;;;;;;5073398;28;20044;-72
2023/05/08 07:51:14;;;;;;;11.07;9.93;;;19.00;99.90;;;;;;5057870;28;20135;-72
2023/05/08 07:53:40;;;;;;;10.93;9.82;;;18.60;99.60;;;;;;5040321;28;20044;-73
2023/05/08 07:56:06;;;;;;;14.43;10.18;;;18.70;99.90;;;;;;5073017;28;20036;-72
2023/05/08 07:58:32;;;;;;;12.23;9.90;;;18.40;99.90;;;;;;5040193;28;20554;-72
2023/05/08 08:00:57;;;;;;;12.90;10.98;;;19.00;99.90;;;;;;5074259;28;20403;-73
2023/05/08 08:03:23;;;;;;;12.60;10.48;;;18.90;99.90;;;;;;5037867;28;20036;-72
2023/05/08 08:05:49;;;;;;;12.90;10.00;;;19.40;99.90;;;;;;5055431;28;20922;-73
2023/05/08 08:08:15;;;;;;;10.85;9.13;;;19.90;99.40;;;;;;5058835;28;20044;-72
2023/05/08 08:10:41;;;;;;;12.38;11.00;;;20.20;98.30;;;;;;5074735;28;20036;-73
2023/05/08 08:13:06;;;;;;;14.65;10.32;;;20.50;98.90;;;;;;5058474;28;20056;-73
2023/05/08 08:15:32;;;;;;;11.77;10.32;;;20.70;97.70;;;;;;5039399;28;20132;-73
2023/05/08 08:17:58;;;;;;;11.50;10.30;;;20.90;98.00;;;;;;5056755;28;20119;-73
2023/05/08 08:20:23;;;;;;;12.35;10.57;;;20.80;97.00;;;;;;5057495;28;20036;-73
2023/05/08 08:22:49;;;;;;;11.60;10.23;;;20.70;97.50;;;;;;5054480;28;20068;-73
2023/05/08 08:25:15;;;;;;;12.32;9.63;;;21.10;97.70;;;;;;5074152;28;20066;-71
2023/05/08 08:27:41;;;;;;;12.50;10.90;;;21.30;96.90;;;;;;5076189;28;20093;-73
2023/05/08 08:30:07;;;;;;;14.25;10.77;;;21.20;96.60;;;;;;5055870;28;20840;-70
2023/05/08 08:32:33;;;;;;;11.70;10.60;;;21.30;96.50;;;;;;5040906;28;20531;-71
2023/05/08 08:34:58;;;;;;;11.73;10.52;;;21.10;96.60;;;;;;5057347;28;20139;-70
2023/05/08 08:37:25;;;;;;;12.23;10.95;;;21.50;96.70;;;;;;5040251;28;20610;-70
2023/05/08 08:39:50;;;;;;;13.55;10.27;;;21.70;96.60;;;;;;5055750;28;20044;-70
2023/05/08 08:42:16;;;;;;;11.82;10.35;;;21.10;95.60;;;;;;5077224;28;20701;-71
2023/05/08 08:44:42;;;;;;;12.00;10.70;;;21.00;96.70;;;;;;5076775;28;20044;-71
2023/05/08 08:47:13;;;;;;;13.50;10.88;;;21.40;97.10;;;;;;5069551;28;20064;-68
2023/05/08 08:49:47;;;;;;;13.48;10.65;;;21.70;96.50;;;;;;5075515;28;20055;-68
2023/05/08 08:52:29;;;;;;;11.98;9.80;;;22.30;95.20;;;;;;5057567;28;20125;-67
2023/05/08 08:54:56;;;;;;;11.73;10.30;;;21.90;95.40;;;;;;5073654;28;20040;-67
2023/05/08 08:57:24;;;;;;;12.70;11.43;;;21.80;95.70;;;;;;5054714;28;20058;-68
2023/05/08 08:59:52;;;;;;;12.77;10.75;;;21.90;95.70;;;;;;5041260;28;20603;-74
2023/05/08 09:02:20;;;;;;;14.75;11.63;;;22.20;96.10;;;;;;5056489;28;20074;-71
2023/05/08 09:04:49;;;;;;;14.38;10.75;;;22.40;95.50;;;;;;5073633;28;20130;-75
2023/05/08 09:07:16;;;;;;;12.77;11.52;;;22.40;94.80;;;;;;5063805;28;20055;-75
2023/05/08 09:09:44;;;;;;;13.93;11.50;;;22.40;95.20;;;;;;5055920;28;20072;-76
2023/05/08 09:12:12;;;;;;;12.05;10.73;;;22.30;94.80;;;;;;5056389;28;20192;-75
2023/05/08 09:14:38;;;;;;;12.85;10.77;;;22.60;95.00;;;;;;5074212;28;20120;-75
2023/05/08 09:17:04;;;;;;;12.20;10.90;;;22.80;95.30;;;;;;5072654;28;20488;-75
2023/05/08 09:19:30;;;;;;;13.30;11.90;;;23.30;94.80;;;;;;5072198;28;20044;-76
2023/05/08 09:21:59;;;;;;;14.57;11.48;;;23.20;94.60;;;;;;5056369;28;20040;-75
2023/05/08 09:24:26;;;;;;;12.77;11.48;;;23.60;94.20;;;;;;5073481;28;20600;-75
2023/05/08 09:26:52;;;;;;;13.48;12.15;;;23.40;94.30;;;;;;5074447;28;20399;-76
2023/05/08 09:29:21;;;;;;;12.93;11.73;;;22.80;93.70;;;;;;5071074;28;20747;-76
2023/05/08 09:31:49;;;;;;;14.52;11.23;;;22.50;94.50;;;;;;5067801;28;20323;-75
2023/05/08 09:34:27;;;;;;;13.20;11.55;;;22.40;94.70;;;;;;5074333;28;20090;-74
2023/05/08 09:36:54;;;;;;;21.42;11.80;;;22.10;94.10;;;;;;5074090;28;20144;-76
2023/05/08 09:39:24;;;;;;;17.45;11.65;;;21.70;94.60;;;;;;5055361;28;20051;-76
2023/05/08 09:41:57;;;;;;;13.82;12.43;;;21.20;95.50;;;;;;5056754;28;20501;-75
2023/05/08 09:44:23;;;;;;;15.43;12.07;;;21.50;95.80;;;;;;5071422;28;20036;-76
2023/05/08 09:46:49;;;;;;;14.05;12.55;;;21.90;95.90;;;;;;5065685;28;20043;-76
2023/05/08 09:49:18;;;;;;;15.05;12.27;;;22.30;96.20;;;;;;5085666;28;20110;-76
2023/05/08 09:51:54;;;;;;;13.02;11.70;;;22.60;96.00;;;;;;5065247;28;20039;-76
2023/05/08 09:54:20;;;;;;;15.57;12.13;;;22.60;94.10;;;;;;5066827;28;20413;-79
2023/05/08 09:56:45;;;;;;;14.40;12.05;;;22.90;95.40;;;;;;5085951;28;20666;-75
2023/05/08 09:59:32;;;;;;;14.60;12.68;;;23.00;94.90;;;;;;5084807;28;20035;-76
2023/05/08 10:01:58;;;;;;;13.38;11.70;;;23.10;93.90;;;;;;5086537;28;20075;-75
2023/05/08 10:04:34;;;;;;;14.68;11.73;;;23.20;94.40;;;;;;5065582;28;20469;-79
2023/05/08 10:07:00;;;;;;;15.75;12.35;;;22.60;94.10;;;;;;5067044;28;20119;-77
2023/05/08 10:09:26;;;;;;;13.75;12.43;;;22.70;95.10;;;;;;5083138;28;20063;-77
2023/05/08 10:11:54;;;;;;;13.13;11.77;;;22.80;95.00;;;;;;5073023;28;20139;-77
2023/05/08 10:14:21;;;;;;;13.38;11.95;;;22.90;94.90;;;;;;5056789;28;20044;-79
2023/05/08 10:16:50;;;;;;;13.02;11.70;;;23.30;95.00;;;;;;5039337;28;20586;-77
2023/05/08 10:19:18;;;;;;;19.55;12.43;;;23.00;93.60;;;;;;5054971;28;20529;-78
2023/05/08 10:21:52;;;;;;;14.05;12.30;;;23.00;95.20;;;;;;5090055;28;20104;-78
2023/05/08 10:24:27;;;;;;;13.27;12.02;;;23.30;93.70;;;;;;5039467;28;20047;-77
2023/05/08 10:26:57;;;;;;;13.73;12.32;;;22.70;93.90;;;;;;5055531;28;20054;-78
2023/05/08 10:29:36;;;;;;;16.55;11.68;;;22.80;94.70;;;;;;5071010;28;20044;-75
2023/05/08 10:32:07;;;;;;;14.95;11.13;;;22.80;95.50;;;;;;5072144;28;20121;-74
2023/05/08 10:34:33;;;;;;;19.77;12.48;;;22.80;94.70;;;;;;5056031;28;20484;-77
2023/05/08 10:37:00;;;;;;;16.83;11.43;;;22.90;94.80;;;;;;5056646;28;20133;-73
2023/05/08 10:39:27;;;;;;;15.27;11.23;;;23.00;95.20;;;;;;5058161;28;20038;-74
2023/05/08 10:41:53;;;;;;;13.20;11.90;;;22.90;94.50;;;;;;5057400;28;20437;-73
2023/05/08 10:44:19;;;;;;;12.68;11.43;;;23.00;94.70;;;;;;5055860;28;20056;-77
2023/05/08 10:46:57;;;;;;;12.70;11.23;;;23.00;94.20;;;;;;5066669;28;20032;-76
2023/05/08 10:49:41;;;;;;;13.88;11.75;;;23.00;94.80;;;;;;5071785;28;20043;-74
2023/05/08 10:52:34;;;;;;;12.48;11.20;;;22.60;94.70;;;;;;5079168;28;20143;-76
2023/05/08 10:55:28;;;;;;;14.73;10.57;;;22.10;95.10;;;;;;5063420;28;20681;-76
2023/05/08 10:58:11;;;;;;;14.60;10.95;;;22.20;95.50;;;;;;5081930;28;20477;-76
2023/05/08 11:00:52;;;;;;;11.40;10.27;;;22.00;96.10;;;;;;5067462;28;20067;-77
2023/05/08 11:03:19;;;;;;;13.55;11.85;;;22.00;97.30;;;;;;5082728;28;20321;-77
2023/05/08 11:05:50;;;;;;;12.68;11.38;;;21.60;96.30;;;;;;5079588;28;20043;-77
2023/05/08 11:08:26;;;;;;;12.85;11.48;;;21.50;96.80;;;;;;5045773;28;20544;-81
2023/05/08 11:11:03;;;;;;;14.18;12.43;;;21.60;97.10;;;;;;5052934;28;20044;-79
2023/05/08 11:13:32;;;;;;;15.77;12.27;;;21.80;97.40;;;;;;5077030;28;20048;-79
2023/05/08 11:15:58;;;;;;;13.93;11.57;;;22.30;97.00;;;;;;5071398;28;20615;-74
2023/05/08 11:18:25;;;;;;;22.15;12.32;;;22.80;96.90;;;;;;5026506;28;20047;-74
2023/05/08 11:21:04;;;;;;;19.17;12.55;;;22.90;96.30;;;;;;5075909;28;20040;-74
2023/05/08 11:23:35;;;;;;;14.50;12.35;;;23.30;96.40;;;;;;5072335;28;20047;-77
2023/05/08 11:26:14;;;;;;;17.15;12.52;;;23.80;96.10;;;;;;5072819;28;20052;-77
2023/05/08 11:29:00;;;;;;;15.10;12.73;;;24.10;95.00;;;;;;5075897;28;20059;-76
2023/05/08 11:31:49;;;;;;;15.07;13.43;;;23.70;94.90;;;;;;5059063;28;21515;-77
2023/05/08 11:34:40;;;;;;;22.38;12.82;;;23.60;94.10;;;;;;5059693;28;21054;-78
2023/05/08 11:37:24;;;;;;;15.05;13.20;;;23.60;95.40;;;;;;5075695;28;20392;-79
2023/05/08 11:39:50;;;;;;;24.65;13.20;;;23.70;94.10;;;;;;5082812;28;20166;-77
2023/05/08 11:42:27;;;;;;;18.02;12.77;;;23.70;94.70;;;;;;5051497;28;20123;-78
2023/05/08 11:45:13;;;;;;;14.85;12.52;;;24.10;95.00;;;;;;5083892;28;20549;-75
2023/05/08 11:47:41;;;;;;;14.90;12.30;;;24.40;95.30;;;;;;5070204;28;20086;-75
2023/05/08 11:50:10;;;;;;;15.10;12.80;;;24.40;94.40;;;;;;5085089;28;20059;-77
2023/05/08 11:52:37;;;;;;;13.45;12.05;;;24.10;94.10;;;;;;5068597;28;20040;-75
2023/05/08 11:55:05;;;;;;;14.52;12.88;;;24.10;94.30;;;;;;5067565;28;20036;-80
2023/05/08 11:57:34;;;;;;;14.00;12.60;;;23.90;94.80;;;;;;5099453;28;20044;-79
2023/05/08 12:00:04;;;;;;;14.77;13.02;;;23.50;94.70;;;;;;5072560;28;20489;-79
2023/05/08 12:02:37;;;;;;;14.07;11.93;;;23.60;95.00;;;;;;5071038;28;20047;-79
2023/05/08 12:05:03;;;;;;;13.68;11.95;;;23.40;95.10;;;;;;5053670;28;20151;-77
2023/05/08 12:07:30;;;;;;;13.75;12.30;;;23.70;95.70;;;;;;5065299;28;20104;-71
2023/05/08 12:09:55;;;;;;;14.20;12.70;;;23.80;95.30;;;;;;5057965;28;20078;-72
2023/05/08 12:12:21;;;;;;;13.52;11.88;;;24.00;94.70;;;;;;5024301;28;20505;-71
2023/05/08 12:14:50;;;;;;;13.35;11.43;;;24.10;94.30;;;;;;5039050;28;20043;-71
2023/05/08 12:17:19;;;;;;;13.43;11.63;;;24.60;94.50;;;;;;5059129;28;20040;-72
2023/05/08 12:19:45;;;;;;;11.80;10.50;;;24.60;94.00;;;;;;5077071;28;20043;-71
2023/05/08 12:22:11;;;;;;;11.32;10.15;;;24.90;94.40;;;;;;5042298;28;20137;-71
2023/05/08 12:24:38;;;;;;;12.10;10.73;;;24.90;93.90;;;;;;5056424;28;20138;-71
2023/05/08 12:27:04;;;;;;;16.05;12.40;;;24.80;93.60;;;;;;5075737;28;20036;-72
2023/05/08 12:29:34;;;;;;;13.18;11.55;;;25.10;93.60;;;;;;5044181;28;20051;-72
2023/05/08 12:31:59;;;;;;;13.32;11.77;;;25.20;93.30;;;;;;5060435;28;20455;-72
2023/05/08 12:34:25;;;;;;;11.18;10.07;;;24.90;93.20;;;;;;5057947;28;20039;-72
2023/05/08 12:37:02;;;;;;;12.23;9.77;;;24.80;93.20;;;;;;5060460;28;20093;-72
2023/05/08 12:39:27;;;;;;;13.20;11.90;;;25.00;93.10;;;;;;5079587;28;20059;-72
2023/05/08 12:41:53;;;;;;;13.07;11.70;;;25.10;93.80;;;;;;5080108;28;20308;-72
2023/05/08 12:44:23;;;;;;;19.77;14.82;;;25.50;94.00;;;;;;5077443;28;20312;-72